createdAt,value
2019-01-02T00:00:43.802Z,0.67
2019-01-02T00:03:10.458Z,0.60
2019-01-02T00:05:37.426Z,0.30
2019-01-02T00:08:04.057Z,0.60
2019-01-02T00:10:30.966Z,0.50
2019-01-02T00:12:57.228Z,0.70
2019-01-02T00:15:23.789Z,0.50
2019-01-02T00:17:50.083Z,0.60
2019-01-02T00:20:17.097Z,0.40
2019-01-02T00:22:43.408Z,0.50
2019-01-02T00:25:10.028Z,0.60
2019-01-02T00:27:36.692Z,0.60
2019-01-02T00:30:05.218Z,0.60
2019-01-02T00:32:31.510Z,1.40
2019-01-02T00:34:57.773Z,0.80
2019-01-02T00:37:24.084Z,0.90
2019-01-02T00:39:50.714Z,0.83
2019-01-02T00:42:17.365Z,1.00
2019-01-02T00:44:43.993Z,1.10
2019-01-02T00:47:10.271Z,0.93
2019-01-02T00:49:36.535Z,0.80
2019-01-02T00:52:02.929Z,1.00
2019-01-02T00:54:29.553Z,0.90
2019-01-02T00:56:56.198Z,1.10
2019-01-02T00:59:22.468Z,1.13
2019-01-02T01:01:48.757Z,0.93
2019-01-02T01:04:15.321Z,1.30
2019-01-02T01:06:41.619Z,1.10
2019-01-02T01:09:08.273Z,1.20
2019-01-02T01:11:34.937Z,0.90
2019-01-02T01:14:01.847Z,1.00
2019-01-02T01:16:28.476Z,0.87
2019-01-02T01:18:55.320Z,1.10
2019-01-02T01:21:21.930Z,1.30
2019-01-02T01:23:48.650Z,1.10
2019-01-02T01:26:15.265Z,1.17
2019-01-02T01:28:42.201Z,1.20
2019-01-02T01:31:08.477Z,1.20
2019-01-02T01:33:35.124Z,1.30
2019-01-02T01:36:01.650Z,1.60
2019-01-02T01:38:28.051Z,1.30
2019-01-02T01:40:54.605Z,1.30
2019-01-02T01:43:21.264Z,1.20
2019-01-02T01:45:47.533Z,1.33
2019-01-02T01:48:14.029Z,1.00
2019-01-02T01:50:40.314Z,1.10
2019-01-02T01:53:06.909Z,1.00
2019-01-02T01:55:33.195Z,1.30
2019-01-02T01:57:59.796Z,1.40
2019-01-02T02:00:26.524Z,1.53
2019-01-02T02:02:53.174Z,1.33
2019-01-02T02:05:19.544Z,1.43
2019-01-02T02:07:45.834Z,1.30
2019-01-02T02:10:14.018Z,1.70
2019-01-02T02:12:40.305Z,1.27
2019-01-02T02:15:08.782Z,1.53
2019-01-02T02:17:35.341Z,1.10
2019-01-02T02:20:02.473Z,0.83
2019-01-02T02:22:28.931Z,1.17
2019-01-02T02:24:55.580Z,1.00
2019-01-02T02:27:22.213Z,1.10
2019-01-02T02:29:48.862Z,1.00
2019-01-02T02:32:15.494Z,1.37
2019-01-02T02:34:41.793Z,1.20
2019-01-02T02:37:08.045Z,1.33
2019-01-02T02:39:34.327Z,1.53
2019-01-02T02:42:01.245Z,0.90
2019-01-02T02:44:28.206Z,1.30
2019-01-02T02:46:54.870Z,1.03
2019-01-02T02:49:21.520Z,0.63
2019-01-02T02:51:47.777Z,0.80
2019-01-02T02:54:14.483Z,0.80
2019-01-02T02:56:41.153Z,1.10
2019-01-02T02:59:07.748Z,1.00
2019-01-02T03:01:34.773Z,0.97
2019-01-02T03:04:01.580Z,0.97
2019-01-02T03:06:28.037Z,1.10
2019-01-02T03:08:54.631Z,0.80
2019-01-02T03:11:21.252Z,0.80
2019-01-02T03:13:47.949Z,1.70
2019-01-02T03:16:14.756Z,1.20
2019-01-02T03:18:41.572Z,0.87
2019-01-02T03:21:08.195Z,1.40
2019-01-02T03:23:34.465Z,1.57
2019-01-02T03:26:01.316Z,0.80
2019-01-02T03:28:27.865Z,0.80
2019-01-02T03:30:55.183Z,1.60
2019-01-02T03:33:21.754Z,0.80
2019-01-02T03:35:48.401Z,1.00
2019-01-02T03:38:14.682Z,1.10
2019-01-02T03:40:41.346Z,0.90
2019-01-02T03:43:07.962Z,1.10
2019-01-02T03:45:34.606Z,0.93
2019-01-02T03:48:00.870Z,1.17
2019-01-02T03:50:27.169Z,0.90
2019-01-02T03:52:53.802Z,0.90
2019-01-02T03:55:20.082Z,0.90
2019-01-02T03:57:46.709Z,1.23
2019-01-02T04:00:14.660Z,0.97
2019-01-02T04:02:41.146Z,1.13
2019-01-02T04:05:10.054Z,1.20
2019-01-02T04:07:36.782Z,1.03
2019-01-02T04:10:06.870Z,1.03
2019-01-02T04:12:33.483Z,1.07
2019-01-02T04:14:59.766Z,1.83
2019-01-02T04:17:26.436Z,1.40
2019-01-02T04:19:53.207Z,1.67
2019-01-02T04:22:19.457Z,1.30
2019-01-02T04:24:45.722Z,1.20
2019-01-02T04:27:12.372Z,1.50
2019-01-02T04:29:38.996Z,1.50
2019-01-02T04:32:05.677Z,1.67
2019-01-02T04:34:32.293Z,1.63
2019-01-02T04:36:58.588Z,1.43
2019-01-02T04:39:24.976Z,1.70
2019-01-02T04:41:51.737Z,1.60
2019-01-02T04:44:18.006Z,1.20
2019-01-02T04:46:44.301Z,1.80
2019-01-02T04:49:10.918Z,1.20
2019-01-02T04:51:37.205Z,1.80
2019-01-02T04:54:03.479Z,1.13
2019-01-02T04:56:29.761Z,1.47
2019-01-02T04:58:56.368Z,1.33
2019-01-02T05:01:23.001Z,1.00
2019-01-02T05:03:49.621Z,2.03
2019-01-02T05:06:15.910Z,2.10
2019-01-02T05:08:42.541Z,1.30
2019-01-02T05:11:09.082Z,1.80
2019-01-02T05:13:35.344Z,1.70
2019-01-02T05:16:01.612Z,1.00
2019-01-02T05:18:28.254Z,1.57
2019-01-02T05:20:54.877Z,1.70
2019-01-02T05:23:21.163Z,1.77
2019-01-02T05:25:47.412Z,1.90
2019-01-02T05:28:14.309Z,1.40
2019-01-02T05:30:40.590Z,1.57
2019-01-02T05:33:07.142Z,1.63
2019-01-02T05:35:33.468Z,1.33
2019-01-02T05:38:00.110Z,1.30
2019-01-02T05:40:26.370Z,1.50
2019-01-02T05:42:52.656Z,1.73
2019-01-02T05:45:18.930Z,1.50
2019-01-02T05:47:45.210Z,1.20
2019-01-02T05:50:11.835Z,1.43
2019-01-02T05:52:38.481Z,1.50
2019-01-02T05:55:06.145Z,2.50
2019-01-02T05:57:32.798Z,1.63
2019-01-02T05:59:59.412Z,1.67
2019-01-02T06:02:26.029Z,1.50
2019-01-02T06:04:52.737Z,2.00
2019-01-02T06:07:19.062Z,1.70
2019-01-02T06:09:45.704Z,1.60
2019-01-02T06:12:12.313Z,2.03
2019-01-02T06:14:38.598Z,2.13
2019-01-02T06:17:04.883Z,1.30
2019-01-02T06:19:31.525Z,1.83
2019-01-02T06:21:58.137Z,1.77
2019-01-02T06:24:24.433Z,1.17
2019-01-02T06:26:51.084Z,1.87
2019-01-02T06:29:17.355Z,1.80
2019-01-02T06:31:43.682Z,2.10
2019-01-02T06:34:10.002Z,2.23
2019-01-02T06:36:36.630Z,1.60
2019-01-02T06:39:05.228Z,2.00
2019-01-02T06:41:31.485Z,1.57
2019-01-02T06:43:58.140Z,1.87
2019-01-02T06:46:24.803Z,1.47
2019-01-02T06:48:51.449Z,1.33
2019-01-02T06:51:18.087Z,1.20
2019-01-02T06:53:44.766Z,1.27
2019-01-02T06:56:11.025Z,1.30
2019-01-02T06:58:37.621Z,1.83
2019-01-02T07:01:04.446Z,1.80
2019-01-02T07:03:30.801Z,1.97
2019-01-02T07:05:57.058Z,1.70
2019-01-02T07:08:23.747Z,1.93
2019-01-02T07:10:50.409Z,1.43
2019-01-02T07:13:17.027Z,1.40
2019-01-02T07:15:43.309Z,1.40
2019-01-02T07:18:09.934Z,1.40
2019-01-02T07:20:36.858Z,1.93
2019-01-02T07:23:03.191Z,2.00
2019-01-02T07:25:29.835Z,1.47
2019-01-02T07:27:56.098Z,1.60
2019-01-02T07:30:22.753Z,1.80
2019-01-02T07:32:49.370Z,1.90
2019-01-02T07:35:34.580Z,1.50
2019-01-02T07:38:19.580Z,1.30
2019-01-02T07:41:04.401Z,1.67
2019-01-02T07:43:32.938Z,1.80
2019-01-02T07:46:18.199Z,1.77
2019-01-02T07:48:49.475Z,1.73
2019-01-02T07:51:29.906Z,1.73
2019-01-02T07:54:01.182Z,2.10
2019-01-02T07:56:32.565Z,1.33
2019-01-02T07:59:02.686Z,1.50
2019-01-02T08:01:47.832Z,1.73
2019-01-02T08:04:16.349Z,1.77
2019-01-02T08:06:44.897Z,1.50
2019-01-02T08:09:17.783Z,1.47
2019-01-02T08:11:46.554Z,1.43
2019-01-02T08:14:20.895Z,1.90
2019-01-02T08:16:59.722Z,1.23
2019-01-02T08:19:37.094Z,1.60
2019-01-02T08:22:07.181Z,1.73
2019-01-02T08:24:46.253Z,2.07
2019-01-02T08:27:28.105Z,4.93
2019-01-02T08:29:56.618Z,4.87
2019-01-02T08:32:34.081Z,4.50
2019-01-02T08:35:02.875Z,5.33
2019-01-02T08:37:31.404Z,4.33
2019-01-02T08:40:31.881Z,3.83
2019-01-02T08:43:35.026Z,2.67
2019-01-02T08:46:12.306Z,2.10
2019-01-02T08:48:41.054Z,1.20
2019-01-02T08:51:09.578Z,1.90
2019-01-02T08:53:48.696Z,1.77
2019-01-02T08:56:20.248Z,1.63
2019-01-02T08:58:48.770Z,1.70
2019-01-02T09:01:30.741Z,2.00
2019-01-02T09:04:15.704Z,1.63
2019-01-02T09:07:02.170Z,1.77
2019-01-02T09:09:30.693Z,1.10
2019-01-02T09:12:05.125Z,1.80
2019-01-02T09:14:49.801Z,1.43
2019-01-02T09:17:18.345Z,1.60
2019-01-02T09:19:49.914Z,2.43
2019-01-02T09:22:21.457Z,1.90
2019-01-02T09:24:58.804Z,1.47
2019-01-02T09:27:30.363Z,1.20
2019-01-02T09:30:08.013Z,2.13
2019-01-02T09:32:43.934Z,2.37
2019-01-02T09:35:20.073Z,2.00
2019-01-02T09:37:54.425Z,1.73
2019-01-02T09:40:22.975Z,2.00
2019-01-02T09:43:24.583Z,2.03
2019-01-02T09:45:50.441Z,2.23
2019-01-02T09:48:21.734Z,2.47
2019-01-02T09:50:59.110Z,2.67
2019-01-02T09:53:30.408Z,2.00
2019-01-02T09:56:10.926Z,2.00
2019-01-02T09:58:49.974Z,2.30
2019-01-02T10:01:18.504Z,1.47
2019-01-02T10:03:52.909Z,1.70
2019-01-02T10:06:54.530Z,1.80
2019-01-02T10:09:34.958Z,1.87
2019-01-02T10:12:03.480Z,1.67
2019-01-02T10:14:58.142Z,1.70
2019-01-02T10:17:29.690Z,1.30
2019-01-02T10:19:58.238Z,1.80
2019-01-02T10:22:51.789Z,2.33
2019-01-02T10:25:26.361Z,1.97
2019-01-02T10:28:19.137Z,2.03
2019-01-02T10:30:54.904Z,1.97
2019-01-02T10:33:40.108Z,2.23
2019-01-02T10:36:08.625Z,2.40
2019-01-02T10:38:50.596Z,2.10
2019-01-02T10:41:52.398Z,1.97
2019-01-02T10:44:20.939Z,1.50
2019-01-02T10:46:52.306Z,2.40
2019-01-02T10:49:37.440Z,2.23
2019-01-02T10:52:22.490Z,2.33
2019-01-02T10:55:00.962Z,2.30
2019-01-02T10:57:36.635Z,2.40
2019-01-02T11:00:40.069Z,1.67
2019-01-02T11:03:24.597Z,1.93
2019-01-02T11:05:57.362Z,2.40
2019-01-02T11:08:31.964Z,1.93
2019-01-02T11:11:10.983Z,2.23
2019-01-02T11:13:42.256Z,2.10
2019-01-02T11:16:25.765Z,2.17
2019-01-02T11:19:07.721Z,2.40
2019-01-02T11:21:55.709Z,2.23
2019-01-02T11:24:29.993Z,1.80
2019-01-02T11:27:11.926Z,2.47
2019-01-02T11:29:59.441Z,2.27
2019-01-02T11:32:38.276Z,2.07
2019-01-02T11:35:23.182Z,2.17
2019-01-02T11:38:03.533Z,2.10
2019-01-02T11:40:53.294Z,1.93
2019-01-02T11:43:44.314Z,2.40
2019-01-02T11:46:10.934Z,2.30
2019-01-02T11:48:37.214Z,2.30
2019-01-02T11:51:04.227Z,3.27
2019-01-02T11:53:30.930Z,1.90
2019-01-02T11:55:57.554Z,5.63
2019-01-02T11:58:24.470Z,12.90
2019-01-02T12:00:51.109Z,2.00
2019-01-02T12:03:17.373Z,1.90
2019-01-02T12:05:44.007Z,2.60
2019-01-02T12:08:10.641Z,2.73
2019-01-02T12:10:37.012Z,2.30
2019-01-02T12:13:03.309Z,2.33
2019-01-02T12:15:29.926Z,1.80
2019-01-02T12:17:56.226Z,2.20
2019-01-02T12:20:22.870Z,1.90
2019-01-02T12:22:49.497Z,1.93
2019-01-02T12:25:16.105Z,2.00
2019-01-02T12:27:43.674Z,2.03
2019-01-02T12:30:10.633Z,2.53
2019-01-02T12:32:37.346Z,1.90
2019-01-02T12:35:04.499Z,1.83
2019-01-02T12:37:31.720Z,2.20
2019-01-02T12:39:58.365Z,1.77
2019-01-02T12:42:25.011Z,1.87
2019-01-02T12:44:51.645Z,1.90
2019-01-02T12:47:19.030Z,1.97
2019-01-02T12:49:45.689Z,2.40
2019-01-02T12:52:12.311Z,1.90
2019-01-02T12:54:38.937Z,2.00
2019-01-02T12:57:05.210Z,2.33
2019-01-02T12:59:31.487Z,2.80
2019-01-02T13:02:06.083Z,2.17
2019-01-02T13:04:34.598Z,2.20
2019-01-02T13:07:10.728Z,2.27
2019-01-02T13:09:39.251Z,1.93
2019-01-02T13:12:10.586Z,1.97
2019-01-02T13:14:43.422Z,2.23
2019-01-02T13:17:21.865Z,1.70
2019-01-02T13:19:54.899Z,2.40
2019-01-02T13:22:40.077Z,2.30
2019-01-02T13:25:37.209Z,1.60
2019-01-02T13:28:11.817Z,1.90
2019-01-02T13:30:47.895Z,2.07
2019-01-02T13:33:24.022Z,1.43
2019-01-02T13:36:08.943Z,1.77
2019-01-02T13:38:39.121Z,1.70
2019-01-02T13:41:07.644Z,3.42
2019-01-02T13:43:48.404Z,2.90
2019-01-02T13:46:21.242Z,2.87
2019-01-02T13:48:55.910Z,2.47
2019-01-02T13:51:23.033Z,2.07
2019-01-02T13:53:49.652Z,1.97
2019-01-02T13:56:16.267Z,2.47
2019-01-02T13:58:42.558Z,2.43
2019-01-02T14:01:08.846Z,2.00
2019-01-02T14:03:35.117Z,2.20
2019-01-02T14:06:01.865Z,2.33
2019-01-02T14:08:28.142Z,2.13
2019-01-02T14:10:54.793Z,2.13
2019-01-02T14:13:21.426Z,2.37
2019-01-02T14:15:47.733Z,2.80
2019-01-02T14:18:14.349Z,3.27
2019-01-02T14:20:40.959Z,2.57
2019-01-02T14:23:07.910Z,1.80
2019-01-02T14:25:34.136Z,2.83
2019-01-02T14:28:00.777Z,1.63
2019-01-02T14:30:27.042Z,2.30
2019-01-02T14:32:53.818Z,3.20
2019-01-02T14:35:22.565Z,5.93
2019-01-02T14:37:48.817Z,3.47
2019-01-02T14:40:15.702Z,3.60
2019-01-02T14:42:42.353Z,2.60
2019-01-02T14:45:08.971Z,2.30
2019-01-02T14:47:35.630Z,2.20
2019-01-02T14:50:02.642Z,2.00
2019-01-02T14:52:29.298Z,2.70
2019-01-02T14:54:55.913Z,2.70
2019-01-02T14:57:22.202Z,3.10
2019-01-02T14:59:48.466Z,2.50
2019-01-02T15:02:14.770Z,2.30
2019-01-02T15:04:41.399Z,2.10
2019-01-02T15:07:08.045Z,2.67
2019-01-02T15:09:34.677Z,2.40
2019-01-02T15:12:01.310Z,1.93
2019-01-02T15:14:27.569Z,2.10
2019-01-02T15:16:53.856Z,2.03
2019-01-02T15:19:20.122Z,2.20
2019-01-02T15:21:46.399Z,2.80
2019-01-02T15:24:13.033Z,2.20
2019-01-02T15:26:39.653Z,3.67
2019-01-02T15:29:06.310Z,3.10
2019-01-02T15:31:32.929Z,2.43
2019-01-02T15:33:59.213Z,2.30
2019-01-02T15:36:25.490Z,1.90
2019-01-02T15:38:51.786Z,1.90
2019-01-02T15:41:19.425Z,2.43
2019-01-02T15:43:45.724Z,2.33
2019-01-02T15:46:11.980Z,2.43
2019-01-02T15:48:38.272Z,2.27
2019-01-02T15:51:04.534Z,2.10
2019-01-02T15:53:31.182Z,2.43
2019-01-02T15:55:57.980Z,1.90
2019-01-02T15:58:25.332Z,1.57
2019-01-02T16:00:51.593Z,2.73
2019-01-02T16:03:17.882Z,2.10
2019-01-02T16:05:44.501Z,1.70
2019-01-02T16:08:11.146Z,2.23
2019-01-02T16:10:37.432Z,2.27
2019-01-02T16:13:03.815Z,2.10
2019-01-02T16:15:30.070Z,2.10
2019-01-02T16:17:56.353Z,2.53
2019-01-02T16:20:22.981Z,1.80
2019-01-02T16:22:49.621Z,2.10
2019-01-02T16:25:16.237Z,1.80
2019-01-02T16:27:42.879Z,1.93
2019-01-02T16:30:09.573Z,1.50
2019-01-02T16:32:36.190Z,2.20
2019-01-02T16:35:02.890Z,1.67
2019-01-02T16:37:29.560Z,1.70
2019-01-02T16:39:56.513Z,1.40
2019-01-02T16:42:22.794Z,2.07
2019-01-02T16:44:49.077Z,6.90
2019-01-02T16:47:15.723Z,4.23
2019-01-02T16:49:42.354Z,5.17
2019-01-02T16:52:08.983Z,2.95
2019-01-02T16:54:35.297Z,2.40
2019-01-02T16:57:01.550Z,2.10
2019-01-02T16:59:27.853Z,2.03
2019-01-02T17:01:54.471Z,1.60
2019-01-02T17:04:21.121Z,2.80
2019-01-02T17:06:47.772Z,2.33
2019-01-02T17:09:14.073Z,2.27
2019-01-02T17:11:40.691Z,2.20
2019-01-02T17:14:07.042Z,1.80
2019-01-02T17:16:33.578Z,1.93
2019-01-02T17:19:00.232Z,1.87
2019-01-02T17:21:26.862Z,1.77
2019-01-02T17:23:53.499Z,1.70
2019-01-02T17:26:20.123Z,1.70
2019-01-02T17:28:46.786Z,1.80
2019-01-02T17:31:13.058Z,1.83
2019-01-02T17:33:39.685Z,1.30
2019-01-02T17:36:05.990Z,1.63
2019-01-02T17:38:32.256Z,1.53
2019-01-02T17:40:58.902Z,1.53
2019-01-02T17:43:25.521Z,1.60
2019-01-02T17:45:52.161Z,1.40
2019-01-02T17:48:18.805Z,1.77
2019-01-02T17:50:45.087Z,1.87
2019-01-02T17:53:11.347Z,1.60
2019-01-02T17:55:37.981Z,2.03
2019-01-02T17:58:04.239Z,1.80
2019-01-02T18:00:30.529Z,1.60
2019-01-02T18:02:56.794Z,1.40
2019-01-02T18:05:23.464Z,1.90
2019-01-02T18:07:50.085Z,1.60
2019-01-02T18:10:16.381Z,1.47
2019-01-02T18:12:43.012Z,1.63
2019-01-02T18:15:09.306Z,1.90
2019-01-02T18:17:35.926Z,1.87
2019-01-02T18:20:03.221Z,2.10
2019-01-02T18:22:29.851Z,2.37
2019-01-02T18:24:56.523Z,1.63
2019-01-02T18:27:23.138Z,1.67
2019-01-02T18:29:50.009Z,2.00
2019-01-02T18:32:16.738Z,1.60
2019-01-02T18:34:43.362Z,1.57
2019-01-02T18:37:09.977Z,2.13
2019-01-02T18:39:36.243Z,1.87
2019-01-02T18:42:03.085Z,2.10
2019-01-02T18:44:30.264Z,1.90
2019-01-02T18:46:56.914Z,1.50
2019-01-02T18:49:23.535Z,1.47
2019-01-02T18:51:50.170Z,1.80
2019-01-02T18:54:16.801Z,1.73
2019-01-02T18:56:43.444Z,2.07
2019-01-02T18:59:10.072Z,1.90
2019-01-02T19:01:36.377Z,2.23
2019-01-02T19:04:03.105Z,1.93
2019-01-02T19:06:30.001Z,2.33
2019-01-02T19:08:56.262Z,2.27
2019-01-02T19:11:22.572Z,2.73
2019-01-02T19:13:49.079Z,2.60
2019-01-02T19:16:21.314Z,2.27
2019-01-02T19:18:44.042Z,1.87
2019-01-02T19:21:10.691Z,2.13
2019-01-02T19:23:37.442Z,2.53
2019-01-02T19:26:03.754Z,1.73
2019-01-02T19:28:31.330Z,2.23
2019-01-02T19:30:57.595Z,1.77
2019-01-02T19:33:24.209Z,1.53
2019-01-02T19:35:50.860Z,1.67
2019-01-02T19:38:17.490Z,1.53
2019-01-02T19:40:44.115Z,2.30
2019-01-02T19:43:10.389Z,1.70
2019-01-02T19:45:36.637Z,1.80
2019-01-02T19:48:03.002Z,2.10
2019-01-02T19:50:29.862Z,2.13
2019-01-02T19:52:56.518Z,1.80
2019-01-02T19:55:25.030Z,2.20
2019-01-02T19:57:51.326Z,2.30
2019-01-02T20:00:17.863Z,2.90
2019-01-02T20:02:44.505Z,2.37
2019-01-02T20:05:10.774Z,1.93
2019-01-02T20:07:37.410Z,2.10
2019-01-02T20:10:05.442Z,2.70
2019-01-02T20:12:31.745Z,2.57
2019-01-02T20:14:58.373Z,2.77
2019-01-02T20:17:24.665Z,2.20
2019-01-02T20:19:50.917Z,2.13
2019-01-02T20:22:17.210Z,2.30
2019-01-02T20:24:43.842Z,1.80
2019-01-02T20:27:10.526Z,1.60
2019-01-02T20:29:37.052Z,1.87
2019-01-02T20:32:04.359Z,1.63
2019-01-02T20:34:31.198Z,1.33
2019-01-02T20:36:57.498Z,1.40
2019-01-02T20:39:23.779Z,1.67
2019-01-02T20:41:50.133Z,1.50
2019-01-02T20:44:16.749Z,1.47
2019-01-02T20:46:43.419Z,1.60
2019-01-02T20:49:09.716Z,1.87
2019-01-02T20:51:36.327Z,2.20
2019-01-02T20:54:03.079Z,1.13
2019-01-02T20:56:29.700Z,1.50
2019-01-02T20:58:55.990Z,1.20
2019-01-02T21:01:22.729Z,1.13
2019-01-02T21:03:49.249Z,1.20
2019-01-02T21:06:15.501Z,1.30
2019-01-02T21:08:41.811Z,1.50
2019-01-02T21:11:08.074Z,1.93
2019-01-02T21:13:34.357Z,1.57
2019-01-02T21:16:00.983Z,1.60
2019-01-02T21:18:27.281Z,1.50
2019-01-02T21:20:54.022Z,1.10
2019-01-02T21:23:20.310Z,1.67
2019-01-02T21:25:46.689Z,1.43
2019-01-02T21:28:13.360Z,1.70
2019-01-02T21:30:39.992Z,1.90
2019-01-02T21:33:06.294Z,1.30
2019-01-02T21:35:34.933Z,1.50
2019-01-02T21:38:01.597Z,1.57
2019-01-02T21:40:28.233Z,1.33
2019-01-02T21:42:54.873Z,1.70
2019-01-02T21:45:21.480Z,1.30
2019-01-02T21:47:48.121Z,1.73
2019-01-02T21:50:14.373Z,1.57
2019-01-02T21:52:40.914Z,1.90
2019-01-02T21:55:07.318Z,1.73
2019-01-02T21:57:33.593Z,1.80
2019-01-02T22:00:00.257Z,1.37
2019-01-02T22:02:26.868Z,1.40
2019-01-02T22:04:53.183Z,1.47
2019-01-02T22:07:19.801Z,1.30
2019-01-02T22:09:46.457Z,1.27
2019-01-02T22:12:12.717Z,1.80
2019-01-02T22:14:39.022Z,1.70
2019-01-02T22:17:05.633Z,1.33
2019-01-02T22:19:32.272Z,1.57
2019-01-02T22:21:58.567Z,1.57
2019-01-02T22:24:25.206Z,1.27
2019-01-02T22:26:51.465Z,1.10
2019-01-02T22:29:18.078Z,1.20
2019-01-02T22:31:44.367Z,1.30
2019-01-02T22:34:11.008Z,1.80
2019-01-02T22:36:37.638Z,1.83
2019-01-02T22:39:05.389Z,1.30
2019-01-02T22:41:31.650Z,1.73
2019-01-02T22:43:58.266Z,1.40
2019-01-02T22:46:24.526Z,1.43
2019-01-02T22:48:50.799Z,1.17
2019-01-02T22:51:17.111Z,1.40
2019-01-02T22:53:43.382Z,2.10
2019-01-02T22:56:10.034Z,2.33
2019-01-02T22:58:36.653Z,2.00
2019-01-02T23:01:05.048Z,1.50
2019-01-02T23:03:33.226Z,1.37
2019-01-02T23:06:19.928Z,1.60
2019-01-02T23:09:04.943Z,1.30
2019-01-02T23:11:42.045Z,1.23
2019-01-02T23:14:27.145Z,1.30
2019-01-02T23:17:04.149Z,1.20
2019-01-02T23:19:38.448Z,1.23
2019-01-02T23:22:23.494Z,1.10
2019-01-02T23:24:52.020Z,1.27
2019-01-02T23:27:29.556Z,1.00
2019-01-02T23:30:09.838Z,1.00
2019-01-02T23:32:54.774Z,0.90
2019-01-02T23:35:25.953Z,1.00
2019-01-02T23:37:54.520Z,1.10
2019-01-02T23:40:31.780Z,1.20
2019-01-02T23:43:09.029Z,0.90
2019-01-02T23:45:40.501Z,1.23
2019-01-02T23:48:08.713Z,0.80
2019-01-02T23:50:53.579Z,1.10
2019-01-02T23:53:21.770Z,0.80
2019-01-02T23:56:06.354Z,1.27
2019-01-02T23:58:37.707Z,1.30
